DLH92 LGIR-LGSK
Flight info
| Callsign | DLH92 |
|---|---|
| Flight time | 0h 26m |
| Altitude | 30000 |
| Route | EPALO M749 MIL/N0368F240 M749 ATV B1 SIGFO DCT FQ01 |
| Aircraft | B738/M-SDE2E3FGHIRWXY/LB1 |
Departure
| Time | 2026-04-16 14:16 |
|---|---|
| Airport | Heraklion International Nikos Kazantzakis Airport (LGIR) |
Arrival
| Time | 2026-04-16 14:42 |
|---|---|
| Airport | Skiathos Island National Airport (LGSK) |
| Time | Latitude | Longitude | Altitude | Speed | Heading |
|---|---|---|---|---|---|
| 2026-04-16 13:35 | 35.33780 | 25.17987 | 91 ft | 0 kts | 213° |
| 2026-04-16 14:05 | 35.33784 | 25.17990 | 93 ft | 2 kts | 213° |
| 2026-04-16 14:05 | 35.33798 | 25.18001 | 90 ft | 2 kts | 212° |
| 2026-04-16 14:05 | 35.33811 | 25.18012 | 92 ft | 2 kts | 212° |
| 2026-04-16 14:06 | 35.33825 | 25.18022 | 91 ft | 2 kts | 194° |
| 2026-04-16 14:06 | 35.33840 | 25.18022 | 91 ft | 1 kts | 132° |
| 2026-04-16 14:06 | 35.33845 | 25.18014 | 91 ft | 0 kts | 118° |
| 2026-04-16 14:11 | 35.33846 | 25.18017 | 91 ft | 0 kts | 93° |
| 2026-04-16 14:11 | 35.33851 | 25.18031 | 91 ft | 4 kts | 62° |
| 2026-04-16 14:12 | 35.33871 | 25.18096 | 93 ft | 11 kts | 85° |
| 2026-04-16 14:12 | 35.33866 | 25.18195 | 97 ft | 12 kts | 99° |
| 2026-04-16 14:12 | 35.33857 | 25.18301 | 96 ft | 14 kts | 93° |
| 2026-04-16 14:12 | 35.33845 | 25.18429 | 96 ft | 17 kts | 95° |
| 2026-04-16 14:13 | 35.33834 | 25.18578 | 92 ft | 17 kts | 97° |
| 2026-04-16 14:13 | 35.33826 | 25.18724 | 91 ft | 17 kts | 92° |
| 2026-04-16 14:13 | 35.33820 | 25.18839 | 90 ft | 0 kts | 91° |
| 2026-04-16 14:14 | 35.33819 | 25.18878 | 90 ft | 9 kts | 92° |
| 2026-04-16 14:14 | 35.33842 | 25.18962 | 90 ft | 11 kts | 43° |
| 2026-04-16 14:14 | 35.33906 | 25.18964 | 89 ft | 7 kts | 321° |
| 2026-04-16 14:15 | 35.33919 | 25.18906 | 87 ft | 8 kts | 264° |
| 2026-04-16 14:15 | 35.33919 | 25.18840 | 87 ft | 8 kts | 273° |
| 2026-04-16 14:15 | 35.33923 | 25.18771 | 88 ft | 14 kts | 273° |
| 2026-04-16 14:15 | 35.33957 | 25.18300 | 92 ft | 96 kts | 275° |
| 2026-04-16 14:16 | 35.34044 | 25.17183 | 94 ft | 165 kts | 281° |
| 2026-04-16 14:16 | 35.34189 | 25.15759 | 913 ft | 165 kts | 280° |
| 2026-04-16 14:16 | 35.34549 | 25.14482 | 1906 ft | 164 kts | 315° |
| 2026-04-16 14:16 | 35.35676 | 25.13728 | 1949 ft | 214 kts | 349° |
| 2026-04-16 14:17 | 35.37284 | 25.13332 | 2100 ft | 255 kts | 351° |
| 2026-04-16 14:17 | 35.39015 | 25.12862 | 2303 ft | 248 kts | 348° |
| 2026-04-16 14:17 | 35.40632 | 25.12324 | 2440 ft | 234 kts | 346° |
| 2026-04-16 14:17 | 35.42167 | 25.11784 | 2512 ft | 227 kts | 346° |
| 2026-04-16 14:18 | 35.43789 | 25.11201 | 2632 ft | 228 kts | 347° |
| 2026-04-16 14:18 | 35.49766 | 25.09028 | 4726 ft | 243 kts | 349° |
| 2026-04-16 14:18 | 35.54689 | 25.07230 | 6540 ft | 240 kts | 347° |
| 2026-04-16 14:18 | 35.56260 | 25.06652 | 7161 ft | 238 kts | 347° |
| 2026-04-16 14:19 | 35.57841 | 25.06071 | 7745 ft | 240 kts | 347° |
| 2026-04-16 14:19 | 35.59896 | 25.05320 | 8028 ft | 265 kts | 347° |
| 2026-04-16 14:19 | 35.67220 | 25.02622 | 10417 ft | 280 kts | 346° |
| 2026-04-16 14:19 | 35.71517 | 25.01033 | 11759 ft | 285 kts | 345° |
| 2026-04-16 14:20 | 35.73911 | 24.99995 | 12490 ft | 289 kts | 341° |
| 2026-04-16 14:20 | 35.81546 | 24.96353 | 14718 ft | 299 kts | 340° |
| 2026-04-16 14:20 | 35.89432 | 24.92630 | 16850 ft | 307 kts | 340° |
| 2026-04-16 14:20 | 35.97537 | 24.88812 | 18824 ft | 317 kts | 340° |
| 2026-04-16 14:21 | 36.04807 | 24.85378 | 20418 ft | 322 kts | 339° |
| 2026-04-16 14:21 | 36.09636 | 24.83091 | 21432 ft | 327 kts | 339° |
| 2026-04-16 14:21 | 36.18209 | 24.79019 | 23177 ft | 334 kts | 340° |
| 2026-04-16 14:21 | 36.26983 | 24.74843 | 24579 ft | 343 kts | 340° |
| 2026-04-16 14:22 | 36.36021 | 24.70533 | 25842 ft | 353 kts | 340° |
| 2026-04-16 14:22 | 36.45273 | 24.66107 | 26923 ft | 360 kts | 339° |
| 2026-04-16 14:22 | 36.51135 | 24.63296 | 27750 ft | 359 kts | 339° |
| 2026-04-16 14:22 | 36.53462 | 24.62178 | 28033 ft | 359 kts | 339° |
| 2026-04-16 14:23 | 36.55801 | 24.61055 | 28242 ft | 362 kts | 339° |
| 2026-04-16 14:23 | 36.58179 | 24.59912 | 28278 ft | 370 kts | 339° |
| 2026-04-16 14:23 | 36.63084 | 24.57552 | 28416 ft | 385 kts | 339° |
| 2026-04-16 14:24 | 36.65584 | 24.56348 | 28099 ft | 396 kts | 339° |
| 2026-04-16 14:24 | 36.68192 | 24.55091 | 28034 ft | 405 kts | 339° |
| 2026-04-16 14:24 | 36.71747 | 24.53377 | 28002 ft | 418 kts | 339° |
| 2026-04-16 14:24 | 36.74778 | 24.51905 | 28019 ft | 421 kts | 337° |
| 2026-04-16 14:25 | 36.77447 | 24.50425 | 27997 ft | 418 kts | 334° |
| 2026-04-16 14:25 | 36.83877 | 24.46418 | 27960 ft | 408 kts | 332° |
| 2026-04-16 14:25 | 36.86400 | 24.44815 | 27993 ft | 406 kts | 332° |
| 2026-04-16 14:25 | 36.90856 | 24.42007 | 28030 ft | 414 kts | 333° |
| 2026-04-16 14:26 | 36.99844 | 24.36408 | 28019 ft | 415 kts | 333° |
| 2026-04-16 14:26 | 37.06874 | 24.32050 | 27977 ft | 400 kts | 333° |
| 2026-04-16 14:26 | 37.13768 | 24.27761 | 28044 ft | 400 kts | 333° |
| 2026-04-16 14:27 | 37.23588 | 24.21631 | 26586 ft | 393 kts | 333° |
| 2026-04-16 14:27 | 37.33317 | 24.15539 | 25130 ft | 386 kts | 333° |
| 2026-04-16 14:27 | 37.42796 | 24.09587 | 23878 ft | 377 kts | 333° |
| 2026-04-16 14:27 | 37.52097 | 24.03733 | 22470 ft | 368 kts | 334° |
| 2026-04-16 14:28 | 37.61169 | 23.98011 | 21078 ft | 361 kts | 333° |
| 2026-04-16 14:28 | 37.70020 | 23.92408 | 19894 ft | 351 kts | 333° |
| 2026-04-16 14:28 | 37.74509 | 23.89558 | 19283 ft | 347 kts | 333° |
| 2026-04-16 14:28 | 37.76649 | 23.88199 | 19079 ft | 343 kts | 333° |
| 2026-04-16 14:29 | 37.78780 | 23.86844 | 18740 ft | 342 kts | 332° |
| 2026-04-16 14:29 | 37.82522 | 23.84466 | 18183 ft | 342 kts | 332° |
| 2026-04-16 14:29 | 37.87985 | 23.81012 | 17020 ft | 348 kts | 335° |
| 2026-04-16 14:29 | 37.90270 | 23.79936 | 16534 ft | 353 kts | 344° |
| 2026-04-16 14:30 | 37.92694 | 23.79405 | 16069 ft | 356 kts | 354° |
| 2026-04-16 14:30 | 37.95180 | 23.79175 | 15603 ft | 359 kts | 356° |
| 2026-04-16 14:30 | 37.97681 | 23.78981 | 15154 ft | 361 kts | 355° |
| 2026-04-16 14:30 | 38.00161 | 23.78734 | 15014 ft | 353 kts | 354° |
| 2026-04-16 14:31 | 38.02577 | 23.78441 | 14968 ft | 343 kts | 353° |
| 2026-04-16 14:31 | 38.07975 | 23.77695 | 14938 ft | 329 kts | 353° |
| 2026-04-16 14:31 | 38.13438 | 23.76910 | 14990 ft | 323 kts | 353° |
| 2026-04-16 14:31 | 38.17770 | 23.76290 | 14878 ft | 322 kts | 352° |
| 2026-04-16 14:32 | 38.26352 | 23.75046 | 13868 ft | 319 kts | 352° |
| 2026-04-16 14:32 | 38.35119 | 23.73766 | 12746 ft | 313 kts | 353° |
| 2026-04-16 14:32 | 38.43669 | 23.72523 | 11728 ft | 306 kts | 354° |
| 2026-04-16 14:32 | 38.51925 | 23.71317 | 10725 ft | 300 kts | 355° |
| 2026-04-16 14:33 | 38.57436 | 23.70507 | 10124 ft | 295 kts | 355° |
| 2026-04-16 14:33 | 38.63305 | 23.69655 | 9232 ft | 296 kts | 356° |
| 2026-04-16 14:33 | 38.66411 | 23.69201 | 8671 ft | 301 kts | 356° |
| 2026-04-16 14:33 | 38.68503 | 23.68896 | 8271 ft | 304 kts | 356° |
| 2026-04-16 14:34 | 38.70620 | 23.68589 | 7878 ft | 308 kts | 356° |
| 2026-04-16 14:34 | 38.72760 | 23.68276 | 7475 ft | 311 kts | 356° |
| 2026-04-16 14:34 | 38.74914 | 23.67963 | 7081 ft | 311 kts | 356° |
| 2026-04-16 14:34 | 38.77054 | 23.67647 | 6696 ft | 308 kts | 356° |
| 2026-04-16 14:35 | 38.79166 | 23.67334 | 6301 ft | 303 kts | 356° |
| 2026-04-16 14:35 | 38.81246 | 23.67026 | 5899 ft | 299 kts | 356° |
| 2026-04-16 14:35 | 38.83300 | 23.66722 | 5492 ft | 295 kts | 356° |
| 2026-04-16 14:35 | 38.85326 | 23.66423 | 5093 ft | 291 kts | 356° |
| 2026-04-16 14:36 | 38.87335 | 23.66131 | 4701 ft | 289 kts | 356° |
| 2026-04-16 14:36 | 38.89303 | 23.65840 | 4491 ft | 277 kts | 356° |
| 2026-04-16 14:36 | 38.91134 | 23.65563 | 4465 ft | 253 kts | 357° |
| 2026-04-16 14:36 | 38.92803 | 23.65310 | 4445 ft | 230 kts | 357° |
| 2026-04-16 14:37 | 38.94291 | 23.64880 | 4427 ft | 216 kts | 335° |
| 2026-04-16 14:37 | 38.95532 | 23.63722 | 4348 ft | 227 kts | 324° |
| 2026-04-16 14:37 | 38.96751 | 23.62334 | 3786 ft | 236 kts | 322° |
| 2026-04-16 14:37 | 38.97944 | 23.60929 | 3277 ft | 236 kts | 323° |
| 2026-04-16 14:38 | 38.99147 | 23.59514 | 2747 ft | 233 kts | 322° |
| 2026-04-16 14:38 | 39.00335 | 23.58124 | 2191 ft | 230 kts | 322° |
| 2026-04-16 14:38 | 39.01507 | 23.56757 | 1744 ft | 222 kts | 321° |
| 2026-04-16 14:38 | 39.02604 | 23.55477 | 1602 ft | 204 kts | 321° |
| 2026-04-16 14:39 | 39.03639 | 23.54272 | 1575 ft | 198 kts | 321° |
| 2026-04-16 14:39 | 39.04672 | 23.53073 | 1590 ft | 202 kts | 321° |
| 2026-04-16 14:39 | 39.05707 | 23.51869 | 1613 ft | 196 kts | 321° |
| 2026-04-16 14:39 | 39.06724 | 23.50686 | 1561 ft | 193 kts | 321° |
| 2026-04-16 14:40 | 39.07671 | 23.49580 | 1546 ft | 176 kts | 321° |
| 2026-04-16 14:40 | 39.08566 | 23.48597 | 1552 ft | 165 kts | 334° |
| 2026-04-16 14:40 | 39.09648 | 23.48328 | 1626 ft | 159 kts | 1° |
| 2026-04-16 14:40 | 39.10782 | 23.48377 | 1394 ft | 163 kts | 8° |
| 2026-04-16 14:41 | 39.11908 | 23.48463 | 1181 ft | 162 kts | 3° |
| 2026-04-16 14:41 | 39.13031 | 23.48524 | 938 ft | 161 kts | 4° |
| 2026-04-16 14:41 | 39.14147 | 23.48707 | 592 ft | 164 kts | 11° |
| 2026-04-16 14:41 | 39.15220 | 23.49108 | 388 ft | 155 kts | 19° |
| 2026-04-16 14:42 | 39.16183 | 23.49735 | 396 ft | 151 kts | 19° |
| 2026-04-16 14:42 | 39.17133 | 23.50095 | 85 ft | 137 kts | 17° |
| 2026-04-16 14:42 | 39.17901 | 23.50431 | 42 ft | 62 kts | 20° |
| 2026-04-16 14:42 | 39.18099 | 23.50530 | 46 ft | 26 kts | 21° |
| 2026-04-16 14:43 | 39.18256 | 23.50602 | 55 ft | 23 kts | 18° |
| 2026-04-16 14:43 | 39.18303 | 23.50622 | 57 ft | 0 kts | 19° |
| 2026-04-16 14:43 | 39.18314 | 23.50637 | 50 ft | 4 kts | 51° |
| 2026-04-16 14:43 | 39.18339 | 23.50646 | 54 ft | 3 kts | 340° |
| 2026-04-16 14:44 | 39.18340 | 23.50630 | 52 ft | 2 kts | 239° |
| 2026-04-16 14:44 | 39.18320 | 23.50623 | 52 ft | 7 kts | 195° |
| 2026-04-16 14:44 | 39.18245 | 23.50593 | 51 ft | 15 kts | 200° |
| 2026-04-16 14:44 | 39.18138 | 23.50542 | 50 ft | 18 kts | 200° |
| 2026-04-16 14:45 | 39.18022 | 23.50495 | 46 ft | 18 kts | 199° |
| 2026-04-16 14:45 | 39.17908 | 23.50447 | 38 ft | 17 kts | 197° |
| 2026-04-16 14:45 | 39.17805 | 23.50398 | 37 ft | 11 kts | 200° |
| 2026-04-16 14:45 | 39.17734 | 23.50364 | 39 ft | 11 kts | 200° |
| 2026-04-16 14:46 | 39.17711 | 23.50286 | 38 ft | 9 kts | 287° |
| 2026-04-16 14:46 | 39.17723 | 23.50266 | 36 ft | 1 kts | 330° |
| 2026-04-16 14:46 | 39.17735 | 23.50262 | 38 ft | 3 kts | 347° |
| 2026-04-16 14:46 | 39.17757 | 23.50263 | 37 ft | 4 kts | 15° |
| 2026-04-16 14:47 | 39.17787 | 23.50273 | 40 ft | 5 kts | 15° |
| 2026-04-16 14:47 | 39.17819 | 23.50268 | 41 ft | 5 kts | 334° |
| 2026-04-16 14:47 | 39.17859 | 23.50234 | 42 ft | 8 kts | 329° |
| 2026-04-16 14:47 | 39.17889 | 23.50212 | 42 ft | 0 kts | 329° |